sensor_id;sensor_type;location;lat;lon;timestamp;temperature;humidity
19174;DHT22;9719;49.322;8.536;2023-07-28T00:11:58;23.60;99.90
19174;DHT22;9719;49.322;8.536;2023-07-28T00:17:00;23.60;99.90
19174;DHT22;9719;49.322;8.536;2023-07-28T00:22:03;23.60;99.90
19174;DHT22;9719;49.322;8.536;2023-07-28T00:27:06;23.60;99.90
19174;DHT22;9719;49.322;8.536;2023-07-28T00:32:08;23.60;99.90
19174;DHT22;9719;49.322;8.536;2023-07-28T00:37:11;23.60;99.90
19174;DHT22;9719;49.322;8.536;2023-07-28T00:42:13;23.60;99.90
19174;DHT22;9719;49.322;8.536;2023-07-28T00:47:33;23.60;99.90
19174;DHT22;9719;49.322;8.536;2023-07-28T00:53:02;23.60;99.90
19174;DHT22;9719;49.322;8.536;2023-07-28T00:58:20;23.60;99.90
19174;DHT22;9719;49.322;8.536;2023-07-28T01:08:59;23.60;99.90
19174;DHT22;9719;49.322;8.536;2023-07-28T01:14:30;23.60;99.90
19174;DHT22;9719;49.322;8.536;2023-07-28T01:19:39;23.60;99.90
19174;DHT22;9719;49.322;8.536;2023-07-28T01:25:04;23.60;99.90
19174;DHT22;9719;49.322;8.536;2023-07-28T01:30:09;23.60;99.90
19174;DHT22;9719;49.322;8.536;2023-07-28T01:35:11;23.50;99.90
19174;DHT22;9719;49.322;8.536;2023-07-28T01:40:13;23.60;99.90
19174;DHT22;9719;49.322;8.536;2023-07-28T01:45:16;23.60;99.90
19174;DHT22;9719;49.322;8.536;2023-07-28T01:50:18;23.60;99.90
19174;DHT22;9719;49.322;8.536;2023-07-28T01:55:20;23.60;99.90
19174;DHT22;9719;49.322;8.536;2023-07-28T02:00:23;23.50;99.90
19174;DHT22;9719;49.322;8.536;2023-07-28T02:05:25;23.60;99.90
19174;DHT22;9719;49.322;8.536;2023-07-28T02:10:30;23.60;99.90
19174;DHT22;9719;49.322;8.536;2023-07-28T02:15:33;23.60;99.90
19174;DHT22;9719;49.322;8.536;2023-07-28T02:20:35;23.60;99.90
19174;DHT22;9719;49.322;8.536;2023-07-28T02:25:38;23.60;99.90
19174;DHT22;9719;49.322;8.536;2023-07-28T02:30:41;23.60;99.90
19174;DHT22;9719;49.322;8.536;2023-07-28T02:35:43;23.60;99.90
19174;DHT22;9719;49.322;8.536;2023-07-28T02:40:45;23.60;99.90
19174;DHT22;9719;49.322;8.536;2023-07-28T02:45:53;23.60;99.90
19174;DHT22;9719;49.322;8.536;2023-07-28T02:50:55;23.60;99.90
19174;DHT22;9719;49.322;8.536;2023-07-28T02:55:57;23.60;99.90
19174;DHT22;9719;49.322;8.536;2023-07-28T03:01:00;23.60;99.90
19174;DHT22;9719;49.322;8.536;2023-07-28T03:06:02;23.60;99.90
19174;DHT22;9719;49.322;8.536;2023-07-28T03:11:04;23.60;99.90
19174;DHT22;9719;49.322;8.536;2023-07-28T03:16:07;23.60;99.90
19174;DHT22;9719;49.322;8.536;2023-07-28T03:21:10;23.60;99.90
19174;DHT22;9719;49.322;8.536;2023-07-28T03:26:11;23.60;99.90
19174;DHT22;9719;49.322;8.536;2023-07-28T03:31:15;23.60;99.90
19174;DHT22;9719;49.322;8.536;2023-07-28T03:36:16;23.60;99.90
19174;DHT22;9719;49.322;8.536;2023-07-28T03:41:20;23.60;99.90
19174;DHT22;9719;49.322;8.536;2023-07-28T03:46:23;23.60;99.90
19174;DHT22;9719;49.322;8.536;2023-07-28T03:51:25;23.50;99.90
19174;DHT22;9719;49.322;8.536;2023-07-28T03:56:27;23.60;99.90
19174;DHT22;9719;49.322;8.536;2023-07-28T04:01:30;23.60;99.90
19174;DHT22;9719;49.322;8.536;2023-07-28T04:06:42;23.60;99.90
19174;DHT22;9719;49.322;8.536;2023-07-28T04:11:44;23.60;99.90
19174;DHT22;9719;49.322;8.536;2023-07-28T04:16:48;23.60;99.90
19174;DHT22;9719;49.322;8.536;2023-07-28T04:21:50;23.60;99.90
19174;DHT22;9719;49.322;8.536;2023-07-28T04:26:52;23.60;99.90
19174;DHT22;9719;49.322;8.536;2023-07-28T04:31:55;23.60;99.90
19174;DHT22;9719;49.322;8.536;2023-07-28T04:36:57;23.60;99.90
19174;DHT22;9719;49.322;8.536;2023-07-28T04:41:59;23.60;99.90
19174;DHT22;9719;49.322;8.536;2023-07-28T04:47:02;23.60;99.90
19174;DHT22;9719;49.322;8.536;2023-07-28T04:52:04;23.60;99.90
19174;DHT22;9719;49.322;8.536;2023-07-28T04:57:06;23.60;99.90
19174;DHT22;9719;49.322;8.536;2023-07-28T05:02:09;23.60;99.90
19174;DHT22;9719;49.322;8.536;2023-07-28T05:07:11;23.60;99.90
19174;DHT22;9719;49.322;8.536;2023-07-28T05:12:13;23.60;99.90
19174;DHT22;9719;49.322;8.536;2023-07-28T05:17:16;23.60;99.90
19174;DHT22;9719;49.322;8.536;2023-07-28T05:22:18;23.60;99.90
19174;DHT22;9719;49.322;8.536;2023-07-28T05:27:20;23.50;99.90
19174;DHT22;9719;49.322;8.536;2023-07-28T05:32:23;23.50;99.90
19174;DHT22;9719;49.322;8.536;2023-07-28T05:37:25;23.50;99.90
19174;DHT22;9719;49.322;8.536;2023-07-28T05:42:27;23.50;99.90
19174;DHT22;9719;49.322;8.536;2023-07-28T05:47:30;23.50;99.90
19174;DHT22;9719;49.322;8.536;2023-07-28T05:52:32;23.50;99.90
19174;DHT22;9719;49.322;8.536;2023-07-28T05:57:34;23.50;99.90
19174;DHT22;9719;49.322;8.536;2023-07-28T06:02:37;23.50;99.90
19174;DHT22;9719;49.322;8.536;2023-07-28T06:07:40;23.50;99.90
19174;DHT22;9719;49.322;8.536;2023-07-28T06:13:00;23.50;99.90
19174;DHT22;9719;49.322;8.536;2023-07-28T06:18:03;23.50;99.90
19174;DHT22;9719;49.322;8.536;2023-07-28T06:23:05;23.50;99.90
19174;DHT22;9719;49.322;8.536;2023-07-28T06:28:06;23.50;99.90
19174;DHT22;9719;49.322;8.536;2023-07-28T06:33:10;23.50;99.90
19174;DHT22;9719;49.322;8.536;2023-07-28T06:38:11;23.50;99.90
19174;DHT22;9719;49.322;8.536;2023-07-28T06:43:13;23.50;99.90
19174;DHT22;9719;49.322;8.536;2023-07-28T06:48:17;23.50;99.90
19174;DHT22;9719;49.322;8.536;2023-07-28T06:53:19;23.50;99.90
19174;DHT22;9719;49.322;8.536;2023-07-28T06:58:21;23.50;99.90
19174;DHT22;9719;49.322;8.536;2023-07-28T07:03:24;23.50;99.90
19174;DHT22;9719;49.322;8.536;2023-07-28T07:08:26;23.60;99.90
19174;DHT22;9719;49.322;8.536;2023-07-28T07:13:28;23.60;99.90
19174;DHT22;9719;49.322;8.536;2023-07-28T07:18:31;23.60;99.90
19174;DHT22;9719;49.322;8.536;2023-07-28T07:23:32;23.60;99.90
19174;DHT22;9719;49.322;8.536;2023-07-28T07:28:34;23.60;99.90
19174;DHT22;9719;49.322;8.536;2023-07-28T07:33:37;23.60;99.90
19174;DHT22;9719;49.322;8.536;2023-07-28T07:38:39;23.60;99.90
19174;DHT22;9719;49.322;8.536;2023-07-28T07:43:42;23.60;99.90
19174;DHT22;9719;49.322;8.536;2023-07-28T07:48:45;23.60;99.90
19174;DHT22;9719;49.322;8.536;2023-07-28T07:53:47;23.60;99.90
19174;DHT22;9719;49.322;8.536;2023-07-28T07:58:49;23.50;99.90
19174;DHT22;9719;49.322;8.536;2023-07-28T08:03:52;23.50;99.90
19174;DHT22;9719;49.322;8.536;2023-07-28T08:08:54;23.50;99.90
19174;DHT22;9719;49.322;8.536;2023-07-28T08:13:57;23.50;99.90
19174;DHT22;9719;49.322;8.536;2023-07-28T08:19:00;23.50;99.90
19174;DHT22;9719;49.322;8.536;2023-07-28T08:24:05;23.50;99.90
19174;DHT22;9719;49.322;8.536;2023-07-28T08:29:07;23.50;99.90
19174;DHT22;9719;49.322;8.536;2023-07-28T08:40:10;23.60;99.90
19174;DHT22;9719;49.322;8.536;2023-07-28T08:45:12;23.60;99.90
19174;DHT22;9719;49.322;8.536;2023-07-28T08:50:14;23.60;99.90
19174;DHT22;9719;49.322;8.536;2023-07-28T08:55:18;23.60;99.90
19174;DHT22;9719;49.322;8.536;2023-07-28T09:00:20;23.60;99.90
19174;DHT22;9719;49.322;8.536;2023-07-28T09:05:37;23.60;99.90
19174;DHT22;9719;49.322;8.536;2023-07-28T09:10:54;23.70;99.90
19174;DHT22;9719;49.322;8.536;2023-07-28T09:15:56;23.70;99.90
19174;DHT22;9719;49.322;8.536;2023-07-28T09:21:20;23.70;99.90
19174;DHT22;9719;49.322;8.536;2023-07-28T09:26:23;23.80;99.90
19174;DHT22;9719;49.322;8.536;2023-07-28T09:31:29;23.80;99.90
19174;DHT22;9719;49.322;8.536;2023-07-28T09:36:31;23.90;99.90
19174;DHT22;9719;49.322;8.536;2023-07-28T09:41:36;23.90;99.90
19174;DHT22;9719;49.322;8.536;2023-07-28T09:46:49;23.90;99.90
19174;DHT22;9719;49.322;8.536;2023-07-28T09:51:54;24.00;99.90
19174;DHT22;9719;49.322;8.536;2023-07-28T09:56:57;24.00;99.90
19174;DHT22;9719;49.322;8.536;2023-07-28T10:02:00;24.00;99.90
19174;DHT22;9719;49.322;8.536;2023-07-28T10:07:04;24.10;99.90
19174;DHT22;9719;49.322;8.536;2023-07-28T10:12:17;24.10;99.90
19174;DHT22;9719;49.322;8.536;2023-07-28T10:17:19;24.10;99.90
19174;DHT22;9719;49.322;8.536;2023-07-28T10:22:32;24.10;99.90
19174;DHT22;9719;49.322;8.536;2023-07-28T10:33:48;24.20;99.90
19174;DHT22;9719;49.322;8.536;2023-07-28T10:38:59;24.20;99.90
19174;DHT22;9719;49.322;8.536;2023-07-28T10:44:01;24.30;99.90
19174;DHT22;9719;49.322;8.536;2023-07-28T10:49:05;24.30;99.90
19174;DHT22;9719;49.322;8.536;2023-07-28T10:54:08;24.30;99.90
19174;DHT22;9719;49.322;8.536;2023-07-28T10:59:09;24.30;99.90
19174;DHT22;9719;49.322;8.536;2023-07-28T11:04:16;24.30;99.90
19174;DHT22;9719;49.322;8.536;2023-07-28T11:09:19;24.30;99.90
19174;DHT22;9719;49.322;8.536;2023-07-28T11:14:21;24.30;99.90
19174;DHT22;9719;49.322;8.536;2023-07-28T11:19:25;24.40;99.90
19174;DHT22;9719;49.322;8.536;2023-07-28T11:24:27;24.40;99.90
19174;DHT22;9719;49.322;8.536;2023-07-28T11:29:28;24.40;99.90
19174;DHT22;9719;49.322;8.536;2023-07-28T11:34:35;24.40;99.90
19174;DHT22;9719;49.322;8.536;2023-07-28T11:39:37;24.40;99.90
19174;DHT22;9719;49.322;8.536;2023-07-28T11:44:40;24.40;99.90
19174;DHT22;9719;49.322;8.536;2023-07-28T11:49:47;24.50;99.90
19174;DHT22;9719;49.322;8.536;2023-07-28T11:54:51;24.50;99.90
19174;DHT22;9719;49.322;8.536;2023-07-28T11:59:53;24.50;99.90
19174;DHT22;9719;49.322;8.536;2023-07-28T12:04:56;24.50;99.90
19174;DHT22;9719;49.322;8.536;2023-07-28T12:10:03;24.50;99.90
19174;DHT22;9719;49.322;8.536;2023-07-28T12:15:19;24.50;99.90
19174;DHT22;9719;49.322;8.536;2023-07-28T12:20:22;24.50;99.90
19174;DHT22;9719;49.322;8.536;2023-07-28T12:25:24;24.50;99.90
19174;DHT22;9719;49.322;8.536;2023-07-28T12:30:25;24.50;99.90
19174;DHT22;9719;49.322;8.536;2023-07-28T12:35:29;24.50;99.90
19174;DHT22;9719;49.322;8.536;2023-07-28T12:40:33;24.50;99.90
19174;DHT22;9719;49.322;8.536;2023-07-28T12:45:35;24.60;99.90
19174;DHT22;9719;49.322;8.536;2023-07-28T12:50:38;24.50;99.90
19174;DHT22;9719;49.322;8.536;2023-07-28T12:55:40;24.50;99.90
19174;DHT22;9719;49.322;8.536;2023-07-28T13:00:41;24.50;99.90
19174;DHT22;9719;49.322;8.536;2023-07-28T13:05:44;24.60;99.90
19174;DHT22;9719;49.322;8.536;2023-07-28T13:10:48;24.60;99.90
19174;DHT22;9719;49.322;8.536;2023-07-28T13:15:50;24.60;99.90
19174;DHT22;9719;49.322;8.536;2023-07-28T13:20:53;24.60;99.90
19174;DHT22;9719;49.322;8.536;2023-07-28T13:25:55;24.60;99.90
19174;DHT22;9719;49.322;8.536;2023-07-28T13:30:56;24.60;99.90
19174;DHT22;9719;49.322;8.536;2023-07-28T13:35:59;24.60;99.90
19174;DHT22;9719;49.322;8.536;2023-07-28T13:41:05;24.60;99.90
19174;DHT22;9719;49.322;8.536;2023-07-28T13:46:07;24.60;99.90
19174;DHT22;9719;49.322;8.536;2023-07-28T13:51:10;24.60;99.90
19174;DHT22;9719;49.322;8.536;2023-07-28T13:56:12;24.60;99.90
19174;DHT22;9719;49.322;8.536;2023-07-28T14:01:14;24.60;99.90
19174;DHT22;9719;49.322;8.536;2023-07-28T14:06:17;24.60;99.90
19174;DHT22;9719;49.322;8.536;2023-07-28T14:11:18;24.60;99.90
19174;DHT22;9719;49.322;8.536;2023-07-28T14:16:20;24.60;99.90
19174;DHT22;9719;49.322;8.536;2023-07-28T14:21:23;24.60;99.90
19174;DHT22;9719;49.322;8.536;2023-07-28T14:26:24;24.70;99.90
19174;DHT22;9719;49.322;8.536;2023-07-28T14:31:26;24.70;99.90
19174;DHT22;9719;49.322;8.536;2023-07-28T14:36:29;24.70;99.90
19174;DHT22;9719;49.322;8.536;2023-07-28T14:41:31;24.70;99.90
19174;DHT22;9719;49.322;8.536;2023-07-28T14:46:33;24.70;99.90
19174;DHT22;9719;49.322;8.536;2023-07-28T14:51:36;24.70;99.90
19174;DHT22;9719;49.322;8.536;2023-07-28T14:56:37;24.70;99.90
19174;DHT22;9719;49.322;8.536;2023-07-28T15:01:39;24.70;99.90
19174;DHT22;9719;49.322;8.536;2023-07-28T15:06:42;24.70;99.90
19174;DHT22;9719;49.322;8.536;2023-07-28T15:11:44;24.70;99.90
19174;DHT22;9719;49.322;8.536;2023-07-28T15:16:45;24.70;99.90
19174;DHT22;9719;49.322;8.536;2023-07-28T15:21:48;24.70;99.90
19174;DHT22;9719;49.322;8.536;2023-07-28T15:26:50;24.70;99.90
19174;DHT22;9719;49.322;8.536;2023-07-28T15:31:52;24.70;99.90
19174;DHT22;9719;49.322;8.536;2023-07-28T15:36:55;24.70;99.90
19174;DHT22;9719;49.322;8.536;2023-07-28T15:41:58;24.60;99.90
19174;DHT22;9719;49.322;8.536;2023-07-28T15:47:00;24.50;99.90
19174;DHT22;9719;49.322;8.536;2023-07-28T15:52:03;24.50;99.90
19174;DHT22;9719;49.322;8.536;2023-07-28T15:57:05;24.50;99.90
19174;DHT22;9719;49.322;8.536;2023-07-28T16:02:07;24.50;99.90
19174;DHT22;9719;49.322;8.536;2023-07-28T16:07:10;24.50;99.90
19174;DHT22;9719;49.322;8.536;2023-07-28T16:12:11;24.50;99.90
19174;DHT22;9719;49.322;8.536;2023-07-28T16:17:13;24.50;99.90
19174;DHT22;9719;49.322;8.536;2023-07-28T16:22:16;24.50;99.90
19174;DHT22;9719;49.322;8.536;2023-07-28T16:27:19;24.50;99.90
19174;DHT22;9719;49.322;8.536;2023-07-28T16:32:20;24.40;99.90
19174;DHT22;9719;49.322;8.536;2023-07-28T16:37:23;24.40;99.90
19174;DHT22;9719;49.322;8.536;2023-07-28T16:42:25;24.40;99.90
19174;DHT22;9719;49.322;8.536;2023-07-28T16:47:27;24.30;99.90
19174;DHT22;9719;49.322;8.536;2023-07-28T16:52:30;24.30;99.90
19174;DHT22;9719;49.322;8.536;2023-07-28T16:57:32;24.30;99.90
19174;DHT22;9719;49.322;8.536;2023-07-28T17:02:33;24.30;99.90
19174;DHT22;9719;49.322;8.536;2023-07-28T17:07:36;24.30;99.90
19174;DHT22;9719;49.322;8.536;2023-07-28T17:12:38;24.30;99.90
19174;DHT22;9719;49.322;8.536;2023-07-28T17:17:40;24.30;99.90
19174;DHT22;9719;49.322;8.536;2023-07-28T17:22:43;24.30;99.90
19174;DHT22;9719;49.322;8.536;2023-07-28T17:27:44;24.30;99.90
19174;DHT22;9719;49.322;8.536;2023-07-28T17:32:46;24.30;99.90
19174;DHT22;9719;49.322;8.536;2023-07-28T17:37:49;24.20;99.90
19174;DHT22;9719;49.322;8.536;2023-07-28T17:42:51;24.20;99.90
19174;DHT22;9719;49.322;8.536;2023-07-28T17:47:53;24.10;99.90
19174;DHT22;9719;49.322;8.536;2023-07-28T17:52:56;24.10;99.90
19174;DHT22;9719;49.322;8.536;2023-07-28T17:57:57;24.10;99.90
19174;DHT22;9719;49.322;8.536;2023-07-28T18:02:59;24.10;99.90
19174;DHT22;9719;49.322;8.536;2023-07-28T18:08:02;24.10;99.90
19174;DHT22;9719;49.322;8.536;2023-07-28T18:13:09;24.10;99.90
19174;DHT22;9719;49.322;8.536;2023-07-28T18:18:11;24.10;99.90
19174;DHT22;9719;49.322;8.536;2023-07-28T18:23:14;24.10;99.90
19174;DHT22;9719;49.322;8.536;2023-07-28T18:28:15;24.10;99.90
19174;DHT22;9719;49.322;8.536;2023-07-28T18:33:17;24.10;99.90
19174;DHT22;9719;49.322;8.536;2023-07-28T18:38:21;24.10;99.90
19174;DHT22;9719;49.322;8.536;2023-07-28T18:43:24;24.20;99.90
19174;DHT22;9719;49.322;8.536;2023-07-28T18:48:27;24.30;99.90
19174;DHT22;9719;49.322;8.536;2023-07-28T18:53:30;24.30;99.90
19174;DHT22;9719;49.322;8.536;2023-07-28T18:58:32;24.30;99.90
19174;DHT22;9719;49.322;8.536;2023-07-28T19:03:34;24.40;99.90
19174;DHT22;9719;49.322;8.536;2023-07-28T19:08:37;24.40;99.90
19174;DHT22;9719;49.322;8.536;2023-07-28T19:13:40;24.40;99.90
19174;DHT22;9719;49.322;8.536;2023-07-28T19:18:42;24.40;99.90
19174;DHT22;9719;49.322;8.536;2023-07-28T19:23:45;24.50;99.90
19174;DHT22;9719;49.322;8.536;2023-07-28T19:28:47;24.40;99.90
19174;DHT22;9719;49.322;8.536;2023-07-28T19:33:48;24.40;99.90
19174;DHT22;9719;49.322;8.536;2023-07-28T19:38:51;24.50;99.90
19174;DHT22;9719;49.322;8.536;2023-07-28T19:43:53;24.50;99.90
19174;DHT22;9719;49.322;8.536;2023-07-28T19:48:55;24.50;99.90
19174;DHT22;9719;49.322;8.536;2023-07-28T19:53:58;24.50;99.90
19174;DHT22;9719;49.322;8.536;2023-07-28T19:59:00;24.50;99.90
19174;DHT22;9719;49.322;8.536;2023-07-28T20:04:01;24.50;99.90
19174;DHT22;9719;49.322;8.536;2023-07-28T20:09:04;24.50;99.90
19174;DHT22;9719;49.322;8.536;2023-07-28T20:14:06;24.50;99.90
19174;DHT22;9719;49.322;8.536;2023-07-28T20:19:08;24.50;99.90
19174;DHT22;9719;49.322;8.536;2023-07-28T20:24:11;24.50;99.90
19174;DHT22;9719;49.322;8.536;2023-07-28T20:29:13;24.50;99.90
19174;DHT22;9719;49.322;8.536;2023-07-28T20:34:15;24.50;99.90
19174;DHT22;9719;49.322;8.536;2023-07-28T20:39:18;24.50;99.90
19174;DHT22;9719;49.322;8.536;2023-07-28T20:44:21;24.50;99.90
19174;DHT22;9719;49.322;8.536;2023-07-28T20:49:23;24.50;99.90
19174;DHT22;9719;49.322;8.536;2023-07-28T20:54:26;24.50;99.90
19174;DHT22;9719;49.322;8.536;2023-07-28T20:59:28;24.50;99.90
19174;DHT22;9719;49.322;8.536;2023-07-28T21:04:30;24.50;99.90
19174;DHT22;9719;49.322;8.536;2023-07-28T21:09:33;24.50;99.90
19174;DHT22;9719;49.322;8.536;2023-07-28T21:14:34;24.50;99.90
19174;DHT22;9719;49.322;8.536;2023-07-28T21:19:36;24.50;99.90
19174;DHT22;9719;49.322;8.536;2023-07-28T21:24:39;24.50;99.90
19174;DHT22;9719;49.322;8.536;2023-07-28T21:29:41;24.50;99.90
19174;DHT22;9719;49.322;8.536;2023-07-28T21:34:43;24.50;99.90
19174;DHT22;9719;49.322;8.536;2023-07-28T21:39:46;24.50;99.90
19174;DHT22;9719;49.322;8.536;2023-07-28T21:44:49;24.50;99.90
19174;DHT22;9719;49.322;8.536;2023-07-28T21:49:50;24.50;99.90
19174;DHT22;9719;49.322;8.536;2023-07-28T21:54:54;24.50;99.90
19174;DHT22;9719;49.322;8.536;2023-07-28T21:59:56;24.40;99.90
19174;DHT22;9719;49.322;8.536;2023-07-28T22:04:57;24.50;99.90
19174;DHT22;9719;49.322;8.536;2023-07-28T22:10:00;24.50;99.90
19174;DHT22;9719;49.322;8.536;2023-07-28T22:15:04;24.50;99.90
19174;DHT22;9719;49.322;8.536;2023-07-28T22:20:07;24.50;99.90
19174;DHT22;9719;49.322;8.536;2023-07-28T22:25:11;24.40;99.90
19174;DHT22;9719;49.322;8.536;2023-07-28T22:30:13;24.50;99.90
19174;DHT22;9719;49.322;8.536;2023-07-28T22:35:15;24.50;99.90
19174;DHT22;9719;49.322;8.536;2023-07-28T22:40:18;24.50;99.90
19174;DHT22;9719;49.322;8.536;2023-07-28T22:45:20;24.50;99.90
19174;DHT22;9719;49.322;8.536;2023-07-28T22:50:22;24.40;99.90
19174;DHT22;9719;49.322;8.536;2023-07-28T22:55:25;24.40;99.90
19174;DHT22;9719;49.322;8.536;2023-07-28T23:00:27;24.40;99.90
19174;DHT22;9719;49.322;8.536;2023-07-28T23:05:29;24.40;99.90
19174;DHT22;9719;49.322;8.536;2023-07-28T23:10:32;24.40;99.90
19174;DHT22;9719;49.322;8.536;2023-07-28T23:15:33;24.40;99.90
19174;DHT22;9719;49.322;8.536;2023-07-28T23:20:35;24.40;99.90
19174;DHT22;9719;49.322;8.536;2023-07-28T23:25:38;24.40;99.90
19174;DHT22;9719;49.322;8.536;2023-07-28T23:30:40;24.40;99.90
19174;DHT22;9719;49.322;8.536;2023-07-28T23:35:41;24.40;99.90
19174;DHT22;9719;49.322;8.536;2023-07-28T23:40:44;24.40;99.90
19174;DHT22;9719;49.322;8.536;2023-07-28T23:45:46;24.40;99.90
19174;DHT22;9719;49.322;8.536;2023-07-28T23:50:47;24.40;99.90
19174;DHT22;9719;49.322;8.536;2023-07-28T23:55:51;24.40;99.90
